sensor_id;sensor_type;location;lat;lon;timestamp;P1;durP1;ratioP1;P2;durP2;ratioP2
44270;SDS011;29963;44.594;11.368;2023-07-31T00:01:48;2.22;;;1.48;;
44270;SDS011;29963;44.594;11.368;2023-07-31T00:04:14;2.65;;;1.92;;
44270;SDS011;29963;44.594;11.368;2023-07-31T00:06:39;5.15;;;2.78;;
44270;SDS011;29963;44.594;11.368;2023-07-31T00:09:05;2.13;;;1.58;;
44270;SDS011;29963;44.594;11.368;2023-07-31T00:11:30;2.00;;;1.80;;
44270;SDS011;29963;44.594;11.368;2023-07-31T00:13:56;6.43;;;2.13;;
44270;SDS011;29963;44.594;11.368;2023-07-31T00:16:22;5.05;;;1.98;;
44270;SDS011;29963;44.594;11.368;2023-07-31T00:18:48;4.63;;;2.15;;
44270;SDS011;29963;44.594;11.368;2023-07-31T00:21:13;2.75;;;1.67;;
44270;SDS011;29963;44.594;11.368;2023-07-31T00:23:39;2.72;;;2.00;;
44270;SDS011;29963;44.594;11.368;2023-07-31T00:26:05;5.28;;;2.05;;
44270;SDS011;29963;44.594;11.368;2023-07-31T00:28:30;6.85;;;1.85;;
44270;SDS011;29963;44.594;11.368;2023-07-31T00:30:56;4.80;;;2.40;;
44270;SDS011;29963;44.594;11.368;2023-07-31T00:33:21;4.47;;;2.05;;
44270;SDS011;29963;44.594;11.368;2023-07-31T00:35:48;2.50;;;1.90;;
44270;SDS011;29963;44.594;11.368;2023-07-31T00:38:14;2.35;;;1.80;;
44270;SDS011;29963;44.594;11.368;2023-07-31T00:40:39;3.80;;;1.80;;
44270;SDS011;29963;44.594;11.368;2023-07-31T00:43:05;5.78;;;2.08;;
44270;SDS011;29963;44.594;11.368;2023-07-31T00:45:31;6.13;;;2.35;;
44270;SDS011;29963;44.594;11.368;2023-07-31T00:47:57;3.22;;;2.05;;
44270;SDS011;29963;44.594;11.368;2023-07-31T00:50:26;6.05;;;2.55;;
44270;SDS011;29963;44.594;11.368;2023-07-31T00:52:53;3.95;;;2.45;;
44270;SDS011;29963;44.594;11.368;2023-07-31T00:55:18;3.25;;;2.13;;
44270;SDS011;29963;44.594;11.368;2023-07-31T00:57:44;4.30;;;2.30;;
44270;SDS011;29963;44.594;11.368;2023-07-31T01:00:10;3.40;;;2.60;;
44270;SDS011;29963;44.594;11.368;2023-07-31T01:02:37;4.30;;;2.65;;
44270;SDS011;29963;44.594;11.368;2023-07-31T01:05:02;4.13;;;2.35;;
44270;SDS011;29963;44.594;11.368;2023-07-31T01:07:37;3.90;;;2.20;;
44270;SDS011;29963;44.594;11.368;2023-07-31T01:10:30;4.40;;;2.22;;
44270;SDS011;29963;44.594;11.368;2023-07-31T01:13:01;2.85;;;2.17;;
44270;SDS011;29963;44.594;11.368;2023-07-31T01:15:28;5.53;;;2.30;;
44270;SDS011;29963;44.594;11.368;2023-07-31T01:17:54;4.20;;;2.20;;
44270;SDS011;29963;44.594;11.368;2023-07-31T01:20:23;4.32;;;2.80;;
44270;SDS011;29963;44.594;11.368;2023-07-31T01:28:23;5.97;;;1.70;;
44270;SDS011;29963;44.594;11.368;2023-07-31T01:30:54;7.65;;;2.55;;
44270;SDS011;29963;44.594;11.368;2023-07-31T01:33:23;3.42;;;2.33;;
44270;SDS011;29963;44.594;11.368;2023-07-31T01:35:49;5.47;;;2.25;;
44270;SDS011;29963;44.594;11.368;2023-07-31T01:38:20;4.32;;;2.60;;
44270;SDS011;29963;44.594;11.368;2023-07-31T01:40:49;2.70;;;2.08;;
44270;SDS011;29963;44.594;11.368;2023-07-31T01:43:17;8.80;;;2.85;;
44270;SDS011;29963;44.594;11.368;2023-07-31T01:45:42;7.47;;;2.35;;
44270;SDS011;29963;44.594;11.368;2023-07-31T01:48:08;3.88;;;2.42;;
44270;SDS011;29963;44.594;11.368;2023-07-31T01:50:34;4.43;;;1.92;;
44270;SDS011;29963;44.594;11.368;2023-07-31T01:52:59;22.13;;;12.63;;
44270;SDS011;29963;44.594;11.368;2023-07-31T01:55:25;30.52;;;17.73;;
44270;SDS011;29963;44.594;11.368;2023-07-31T01:57:51;16.10;;;6.97;;
44270;SDS011;29963;44.594;11.368;2023-07-31T02:00:17;9.57;;;5.68;;
44270;SDS011;29963;44.594;11.368;2023-07-31T02:02:43;7.47;;;4.80;;
44270;SDS011;29963;44.594;11.368;2023-07-31T02:05:08;22.60;;;11.98;;
44270;SDS011;29963;44.594;11.368;2023-07-31T02:07:34;40.67;;;22.83;;
44270;SDS011;29963;44.594;11.368;2023-07-31T02:10:00;24.52;;;11.95;;
44270;SDS011;29963;44.594;11.368;2023-07-31T02:12:25;12.48;;;7.93;;
44270;SDS011;29963;44.594;11.368;2023-07-31T02:14:51;7.32;;;3.95;;
44270;SDS011;29963;44.594;11.368;2023-07-31T02:17:16;9.27;;;4.82;;
44270;SDS011;29963;44.594;11.368;2023-07-31T02:19:42;24.27;;;16.25;;
44270;SDS011;29963;44.594;11.368;2023-07-31T02:22:08;60.72;;;34.72;;
44270;SDS011;29963;44.594;11.368;2023-07-31T02:24:33;250.45;;;148.55;;
44270;SDS011;29963;44.594;11.368;2023-07-31T02:26:59;165.10;;;95.38;;
44270;SDS011;29963;44.594;11.368;2023-07-31T02:29:24;61.38;;;35.50;;
44270;SDS011;29963;44.594;11.368;2023-07-31T02:31:50;51.75;;;28.13;;
44270;SDS011;29963;44.594;11.368;2023-07-31T02:34:15;14.95;;;8.98;;
44270;SDS011;29963;44.594;11.368;2023-07-31T02:36:41;6.45;;;3.70;;
44270;SDS011;29963;44.594;11.368;2023-07-31T02:39:07;22.50;;;10.55;;
44270;SDS011;29963;44.594;11.368;2023-07-31T02:41:32;50.63;;;25.67;;
44270;SDS011;29963;44.594;11.368;2023-07-31T02:43:58;91.35;;;40.95;;
44270;SDS011;29963;44.594;11.368;2023-07-31T02:46:23;219.80;;;102.63;;
44270;SDS011;29963;44.594;11.368;2023-07-31T02:48:49;158.30;;;74.20;;
44270;SDS011;29963;44.594;11.368;2023-07-31T02:51:16;88.88;;;40.15;;
44270;SDS011;29963;44.594;11.368;2023-07-31T02:53:41;76.00;;;37.05;;
44270;SDS011;29963;44.594;11.368;2023-07-31T02:56:07;49.75;;;29.05;;
44270;SDS011;29963;44.594;11.368;2023-07-31T02:58:32;39.00;;;21.85;;
44270;SDS011;29963;44.594;11.368;2023-07-31T03:00:58;19.42;;;12.68;;
44270;SDS011;29963;44.594;11.368;2023-07-31T03:03:24;9.00;;;5.57;;
44270;SDS011;29963;44.594;11.368;2023-07-31T03:05:49;6.80;;;4.80;;
44270;SDS011;29963;44.594;11.368;2023-07-31T03:08:15;4.70;;;2.80;;
44270;SDS011;29963;44.594;11.368;2023-07-31T03:10:40;5.82;;;3.28;;
44270;SDS011;29963;44.594;11.368;2023-07-31T03:13:06;6.95;;;2.88;;
44270;SDS011;29963;44.594;11.368;2023-07-31T03:15:32;9.40;;;4.88;;
44270;SDS011;29963;44.594;11.368;2023-07-31T03:17:57;14.13;;;6.13;;
44270;SDS011;29963;44.594;11.368;2023-07-31T03:20:23;11.65;;;5.55;;
44270;SDS011;29963;44.594;11.368;2023-07-31T03:22:48;11.18;;;5.47;;
44270;SDS011;29963;44.594;11.368;2023-07-31T03:25:14;11.30;;;5.47;;
44270;SDS011;29963;44.594;11.368;2023-07-31T03:27:40;14.18;;;7.05;;
44270;SDS011;29963;44.594;11.368;2023-07-31T03:30:06;38.60;;;16.00;;
44270;SDS011;29963;44.594;11.368;2023-07-31T03:32:32;16.55;;;7.22;;
44270;SDS011;29963;44.594;11.368;2023-07-31T03:34:57;9.07;;;4.93;;
44270;SDS011;29963;44.594;11.368;2023-07-31T03:37:23;11.02;;;5.10;;
44270;SDS011;29963;44.594;11.368;2023-07-31T03:39:48;4.72;;;3.28;;
44270;SDS011;29963;44.594;11.368;2023-07-31T03:42:14;5.82;;;4.22;;
44270;SDS011;29963;44.594;11.368;2023-07-31T03:44:40;19.20;;;9.32;;
44270;SDS011;29963;44.594;11.368;2023-07-31T03:47:05;41.28;;;18.38;;
44270;SDS011;29963;44.594;11.368;2023-07-31T03:49:31;50.63;;;21.90;;
44270;SDS011;29963;44.594;11.368;2023-07-31T03:51:57;24.27;;;12.32;;
44270;SDS011;29963;44.594;11.368;2023-07-31T03:54:22;14.48;;;7.68;;
44270;SDS011;29963;44.594;11.368;2023-07-31T03:56:48;32.13;;;15.90;;
44270;SDS011;29963;44.594;11.368;2023-07-31T03:59:14;71.82;;;34.67;;
44270;SDS011;29963;44.594;11.368;2023-07-31T04:01:39;46.15;;;21.27;;
44270;SDS011;29963;44.594;11.368;2023-07-31T04:04:05;41.45;;;17.23;;
44270;SDS011;29963;44.594;11.368;2023-07-31T04:06:30;21.58;;;9.38;;
44270;SDS011;29963;44.594;11.368;2023-07-31T04:08:56;17.02;;;7.30;;
44270;SDS011;29963;44.594;11.368;2023-07-31T04:11:21;12.98;;;6.72;;
44270;SDS011;29963;44.594;11.368;2023-07-31T04:13:47;14.45;;;8.10;;
44270;SDS011;29963;44.594;11.368;2023-07-31T04:16:13;12.00;;;4.25;;
44270;SDS011;29963;44.594;11.368;2023-07-31T04:18:38;10.25;;;5.00;;
44270;SDS011;29963;44.594;11.368;2023-07-31T04:21:04;11.95;;;5.40;;
44270;SDS011;29963;44.594;11.368;2023-07-31T04:23:29;7.93;;;4.55;;
44270;SDS011;29963;44.594;11.368;2023-07-31T04:25:55;7.32;;;3.72;;
44270;SDS011;29963;44.594;11.368;2023-07-31T04:28:21;7.97;;;3.58;;
44270;SDS011;29963;44.594;11.368;2023-07-31T04:30:47;7.72;;;4.45;;
44270;SDS011;29963;44.594;11.368;2023-07-31T04:33:12;9.40;;;3.40;;
44270;SDS011;29963;44.594;11.368;2023-07-31T04:35:38;4.30;;;3.05;;
44270;SDS011;29963;44.594;11.368;2023-07-31T04:38:04;8.07;;;3.88;;
44270;SDS011;29963;44.594;11.368;2023-07-31T04:40:29;20.02;;;8.70;;
44270;SDS011;29963;44.594;11.368;2023-07-31T04:42:55;19.25;;;7.32;;
44270;SDS011;29963;44.594;11.368;2023-07-31T04:45:21;13.02;;;4.43;;
44270;SDS011;29963;44.594;11.368;2023-07-31T04:47:46;11.23;;;3.75;;
44270;SDS011;29963;44.594;11.368;2023-07-31T04:50:12;8.95;;;4.72;;
44270;SDS011;29963;44.594;11.368;2023-07-31T04:52:37;6.72;;;3.55;;
44270;SDS011;29963;44.594;11.368;2023-07-31T04:55:03;19.95;;;6.88;;
44270;SDS011;29963;44.594;11.368;2023-07-31T04:57:29;18.88;;;5.80;;
44270;SDS011;29963;44.594;11.368;2023-07-31T04:59:54;16.77;;;7.53;;
44270;SDS011;29963;44.594;11.368;2023-07-31T05:02:20;6.85;;;3.42;;
44270;SDS011;29963;44.594;11.368;2023-07-31T05:04:46;9.40;;;3.20;;
44270;SDS011;29963;44.594;11.368;2023-07-31T05:07:12;5.25;;;2.55;;
44270;SDS011;29963;44.594;11.368;2023-07-31T05:09:37;5.03;;;3.50;;
44270;SDS011;29963;44.594;11.368;2023-07-31T05:12:04;7.47;;;2.67;;
44270;SDS011;29963;44.594;11.368;2023-07-31T05:14:30;12.63;;;4.35;;
44270;SDS011;29963;44.594;11.368;2023-07-31T05:16:56;8.13;;;3.53;;
44270;SDS011;29963;44.594;11.368;2023-07-31T05:19:21;11.07;;;3.22;;
44270;SDS011;29963;44.594;11.368;2023-07-31T05:21:47;9.65;;;4.63;;
44270;SDS011;29963;44.594;11.368;2023-07-31T05:24:13;6.85;;;3.20;;
44270;SDS011;29963;44.594;11.368;2023-07-31T05:26:38;10.18;;;5.13;;
44270;SDS011;29963;44.594;11.368;2023-07-31T05:29:04;67.70;;;33.55;;
44270;SDS011;29963;44.594;11.368;2023-07-31T05:31:29;31.40;;;19.33;;
44270;SDS011;29963;44.594;11.368;2023-07-31T05:33:57;13.23;;;6.78;;
44270;SDS011;29963;44.594;11.368;2023-07-31T05:36:22;10.35;;;4.82;;
44270;SDS011;29963;44.594;11.368;2023-07-31T05:38:48;6.70;;;4.10;;
44270;SDS011;29963;44.594;11.368;2023-07-31T05:41:14;9.43;;;3.42;;
44270;SDS011;29963;44.594;11.368;2023-07-31T05:43:40;7.20;;;3.38;;
44270;SDS011;29963;44.594;11.368;2023-07-31T05:46:06;4.50;;;2.22;;
44270;SDS011;29963;44.594;11.368;2023-07-31T05:48:32;4.53;;;2.40;;
44270;SDS011;29963;44.594;11.368;2023-07-31T05:50:59;2.75;;;2.10;;
44270;SDS011;29963;44.594;11.368;2023-07-31T05:53:25;4.45;;;2.03;;
44270;SDS011;29963;44.594;11.368;2023-07-31T05:55:50;1.48;;;1.13;;
44270;SDS011;29963;44.594;11.368;2023-07-31T05:58:16;4.80;;;2.17;;
44270;SDS011;29963;44.594;11.368;2023-07-31T06:00:41;1.98;;;1.67;;
44270;SDS011;29963;44.594;11.368;2023-07-31T06:03:07;1.42;;;1.20;;
44270;SDS011;29963;44.594;11.368;2023-07-31T06:05:32;3.85;;;1.80;;
44270;SDS011;29963;44.594;11.368;2023-07-31T06:07:58;1.50;;;1.30;;
44270;SDS011;29963;44.594;11.368;2023-07-31T06:10:24;4.95;;;2.40;;
44270;SDS011;29963;44.594;11.368;2023-07-31T06:12:50;1.70;;;1.45;;
44270;SDS011;29963;44.594;11.368;2023-07-31T06:15:15;3.10;;;1.83;;
44270;SDS011;29963;44.594;11.368;2023-07-31T06:17:41;3.55;;;1.70;;
44270;SDS011;29963;44.594;11.368;2023-07-31T06:20:07;5.38;;;1.88;;
44270;SDS011;29963;44.594;11.368;2023-07-31T06:22:33;3.13;;;1.83;;
44270;SDS011;29963;44.594;11.368;2023-07-31T06:24:59;3.60;;;1.20;;
44270;SDS011;29963;44.594;11.368;2023-07-31T06:27:24;3.20;;;1.67;;
44270;SDS011;29963;44.594;11.368;2023-07-31T06:29:50;2.50;;;1.48;;
44270;SDS011;29963;44.594;11.368;2023-07-31T06:32:16;3.92;;;2.15;;
44270;SDS011;29963;44.594;11.368;2023-07-31T06:34:41;2.70;;;2.15;;
44270;SDS011;29963;44.594;11.368;2023-07-31T06:37:07;2.60;;;1.65;;
44270;SDS011;29963;44.594;11.368;2023-07-31T06:39:33;2.03;;;1.65;;
44270;SDS011;29963;44.594;11.368;2023-07-31T06:41:58;3.70;;;1.95;;
44270;SDS011;29963;44.594;11.368;2023-07-31T06:44:24;3.13;;;1.70;;
44270;SDS011;29963;44.594;11.368;2023-07-31T06:46:49;2.00;;;1.80;;
44270;SDS011;29963;44.594;11.368;2023-07-31T06:49:15;3.10;;;1.55;;
44270;SDS011;29963;44.594;11.368;2023-07-31T06:51:41;2.95;;;1.63;;
44270;SDS011;29963;44.594;11.368;2023-07-31T06:54:07;3.03;;;1.55;;
44270;SDS011;29963;44.594;11.368;2023-07-31T06:56:33;1.83;;;1.50;;
44270;SDS011;29963;44.594;11.368;2023-07-31T06:58:59;2.85;;;1.30;;
44270;SDS011;29963;44.594;11.368;2023-07-31T07:01:25;3.47;;;1.58;;
44270;SDS011;29963;44.594;11.368;2023-07-31T07:03:50;2.13;;;1.85;;
44270;SDS011;29963;44.594;11.368;2023-07-31T07:06:19;1.52;;;1.40;;
44270;SDS011;29963;44.594;11.368;2023-07-31T07:08:45;5.22;;;1.98;;
44270;SDS011;29963;44.594;11.368;2023-07-31T07:11:11;3.30;;;1.60;;
44270;SDS011;29963;44.594;11.368;2023-07-31T07:13:36;3.30;;;1.75;;
44270;SDS011;29963;44.594;11.368;2023-07-31T07:16:02;3.53;;;1.75;;
44270;SDS011;29963;44.594;11.368;2023-07-31T07:18:28;2.33;;;1.70;;
44270;SDS011;29963;44.594;11.368;2023-07-31T07:20:53;4.82;;;2.00;;
44270;SDS011;29963;44.594;11.368;2023-07-31T07:23:19;1.58;;;1.48;;
44270;SDS011;29963;44.594;11.368;2023-07-31T07:25:46;1.92;;;1.70;;
44270;SDS011;29963;44.594;11.368;2023-07-31T07:28:12;2.78;;;1.63;;
44270;SDS011;29963;44.594;11.368;2023-07-31T07:30:38;4.63;;;1.73;;
44270;SDS011;29963;44.594;11.368;2023-07-31T07:33:04;1.90;;;1.63;;
44270;SDS011;29963;44.594;11.368;2023-07-31T07:35:30;1.90;;;1.25;;
44270;SDS011;29963;44.594;11.368;2023-07-31T07:37:58;4.22;;;2.38;;
44270;SDS011;29963;44.594;11.368;2023-07-31T07:40:24;4.38;;;2.08;;
44270;SDS011;29963;44.594;11.368;2023-07-31T07:42:49;1.67;;;1.48;;
44270;SDS011;29963;44.594;11.368;2023-07-31T07:45:15;2.50;;;2.03;;
44270;SDS011;29963;44.594;11.368;2023-07-31T07:47:41;2.85;;;1.48;;
44270;SDS011;29963;44.594;11.368;2023-07-31T07:50:07;2.78;;;1.38;;
44270;SDS011;29963;44.594;11.368;2023-07-31T07:52:33;6.38;;;1.85;;
44270;SDS011;29963;44.594;11.368;2023-07-31T07:54:59;2.25;;;1.27;;
44270;SDS011;29963;44.594;11.368;2023-07-31T07:57:25;3.42;;;1.40;;
44270;SDS011;29963;44.594;11.368;2023-07-31T07:59:51;2.65;;;1.90;;
44270;SDS011;29963;44.594;11.368;2023-07-31T08:02:16;2.83;;;1.60;;
44270;SDS011;29963;44.594;11.368;2023-07-31T08:04:42;3.47;;;1.85;;
44270;SDS011;29963;44.594;11.368;2023-07-31T08:07:07;3.03;;;1.50;;
44270;SDS011;29963;44.594;11.368;2023-07-31T08:09:35;2.25;;;1.42;;
44270;SDS011;29963;44.594;11.368;2023-07-31T08:12:01;2.70;;;1.45;;
44270;SDS011;29963;44.594;11.368;2023-07-31T08:14:28;1.77;;;1.15;;
44270;SDS011;29963;44.594;11.368;2023-07-31T08:16:54;3.95;;;1.67;;
44270;SDS011;29963;44.594;11.368;2023-07-31T08:19:19;1.95;;;1.10;;
44270;SDS011;29963;44.594;11.368;2023-07-31T08:21:45;1.38;;;1.27;;
44270;SDS011;29963;44.594;11.368;2023-07-31T08:24:10;2.00;;;1.75;;
44270;SDS011;29963;44.594;11.368;2023-07-31T08:26:36;8.35;;;1.65;;
44270;SDS011;29963;44.594;11.368;2023-07-31T08:29:02;2.55;;;1.20;;
44270;SDS011;29963;44.594;11.368;2023-07-31T08:31:28;2.90;;;1.38;;
44270;SDS011;29963;44.594;11.368;2023-07-31T08:33:54;2.25;;;1.27;;
44270;SDS011;29963;44.594;11.368;2023-07-31T08:36:21;4.53;;;1.35;;
44270;SDS011;29963;44.594;11.368;2023-07-31T08:38:46;2.00;;;1.42;;
44270;SDS011;29963;44.594;11.368;2023-07-31T08:41:12;2.85;;;1.52;;
44270;SDS011;29963;44.594;11.368;2023-07-31T08:43:38;2.55;;;1.40;;
44270;SDS011;29963;44.594;11.368;2023-07-31T08:46:04;2.17;;;1.70;;
44270;SDS011;29963;44.594;11.368;2023-07-31T08:48:31;2.05;;;1.10;;
44270;SDS011;29963;44.594;11.368;2023-07-31T08:50:58;4.95;;;3.50;;
44270;SDS011;29963;44.594;11.368;2023-07-31T08:53:23;5.80;;;2.45;;
44270;SDS011;29963;44.594;11.368;2023-07-31T08:55:49;3.33;;;1.75;;
44270;SDS011;29963;44.594;11.368;2023-07-31T08:58:17;9.02;;;3.33;;
44270;SDS011;29963;44.594;11.368;2023-07-31T09:00:44;9.02;;;3.60;;
44270;SDS011;29963;44.594;11.368;2023-07-31T09:03:15;2.70;;;1.65;;
44270;SDS011;29963;44.594;11.368;2023-07-31T09:05:43;3.20;;;1.73;;
44270;SDS011;29963;44.594;11.368;2023-07-31T09:08:15;4.47;;;1.98;;
44270;SDS011;29963;44.594;11.368;2023-07-31T09:10:44;4.30;;;1.88;;
44270;SDS011;29963;44.594;11.368;2023-07-31T09:13:11;8.73;;;3.25;;
44270;SDS011;29963;44.594;11.368;2023-07-31T09:15:37;6.57;;;2.55;;
44270;SDS011;29963;44.594;11.368;2023-07-31T09:18:05;2.47;;;1.52;;
44270;SDS011;29963;44.594;11.368;2023-07-31T09:20:31;1.48;;;1.38;;
44270;SDS011;29963;44.594;11.368;2023-07-31T09:23:04;2.95;;;1.60;;
44270;SDS011;29963;44.594;11.368;2023-07-31T09:25:34;1.83;;;1.40;;
44270;SDS011;29963;44.594;11.368;2023-07-31T09:28:02;3.00;;;1.90;;
44270;SDS011;29963;44.594;11.368;2023-07-31T09:30:29;2.30;;;1.73;;
44270;SDS011;29963;44.594;11.368;2023-07-31T09:33:02;1.67;;;1.58;;
44270;SDS011;29963;44.594;11.368;2023-07-31T09:35:31;3.13;;;1.95;;
44270;SDS011;29963;44.594;11.368;2023-07-31T09:38:06;4.95;;;2.40;;
44270;SDS011;29963;44.594;11.368;2023-07-31T09:40:34;3.83;;;1.42;;
44270;SDS011;29963;44.594;11.368;2023-07-31T09:43:05;9.57;;;2.60;;
44270;SDS011;29963;44.594;11.368;2023-07-31T09:45:35;3.10;;;2.00;;
44270;SDS011;29963;44.594;11.368;2023-07-31T09:48:11;3.50;;;2.28;;
44270;SDS011;29963;44.594;11.368;2023-07-31T09:50:41;19.08;;;5.28;;
44270;SDS011;29963;44.594;11.368;2023-07-31T09:53:08;7.07;;;2.22;;
44270;SDS011;29963;44.594;11.368;2023-07-31T09:55:34;8.88;;;2.05;;
44270;SDS011;29963;44.594;11.368;2023-07-31T09:58:08;1.98;;;1.58;;
44270;SDS011;29963;44.594;11.368;2023-07-31T10:00:35;6.80;;;3.03;;
44270;SDS011;29963;44.594;11.368;2023-07-31T10:03:01;6.15;;;2.30;;
44270;SDS011;29963;44.594;11.368;2023-07-31T10:05:35;4.95;;;1.90;;
44270;SDS011;29963;44.594;11.368;2023-07-31T10:08:03;6.30;;;2.75;;
44270;SDS011;29963;44.594;11.368;2023-07-31T10:10:30;5.70;;;2.38;;
44270;SDS011;29963;44.594;11.368;2023-07-31T10:12:57;1.95;;;1.58;;
44270;SDS011;29963;44.594;11.368;2023-07-31T10:15:23;1.52;;;1.42;;
44270;SDS011;29963;44.594;11.368;2023-07-31T10:17:50;1.98;;;1.45;;
44270;SDS011;29963;44.594;11.368;2023-07-31T10:20:17;1.92;;;1.75;;
44270;SDS011;29963;44.594;11.368;2023-07-31T10:22:43;1.85;;;1.65;;
44270;SDS011;29963;44.594;11.368;2023-07-31T10:25:12;3.05;;;2.00;;
44270;SDS011;29963;44.594;11.368;2023-07-31T10:27:40;2.92;;;2.33;;
44270;SDS011;29963;44.594;11.368;2023-07-31T10:30:07;1.98;;;1.75;;
44270;SDS011;29963;44.594;11.368;2023-07-31T10:32:36;2.55;;;2.28;;
44270;SDS011;29963;44.594;11.368;2023-07-31T10:35:05;2.00;;;1.70;;
44270;SDS011;29963;44.594;11.368;2023-07-31T10:37:40;3.67;;;2.00;;
44270;SDS011;29963;44.594;11.368;2023-07-31T10:40:10;1.90;;;1.63;;
44270;SDS011;29963;44.594;11.368;2023-07-31T10:42:47;2.10;;;1.83;;
44270;SDS011;29963;44.594;11.368;2023-07-31T10:45:23;2.75;;;1.73;;
44270;SDS011;29963;44.594;11.368;2023-07-31T10:48:12;1.75;;;1.65;;
44270;SDS011;29963;44.594;11.368;2023-07-31T10:50:46;5.57;;;2.15;;
44270;SDS011;29963;44.594;11.368;2023-07-31T10:53:28;6.57;;;2.08;;
44270;SDS011;29963;44.594;11.368;2023-07-31T10:56:05;4.43;;;1.83;;
44270;SDS011;29963;44.594;11.368;2023-07-31T10:58:32;4.28;;;2.30;;
44270;SDS011;29963;44.594;11.368;2023-07-31T11:00:58;2.55;;;1.70;;
44270;SDS011;29963;44.594;11.368;2023-07-31T11:03:26;2.80;;;1.83;;
44270;SDS011;29963;44.594;11.368;2023-07-31T11:06:05;2.08;;;1.83;;
44270;SDS011;29963;44.594;11.368;2023-07-31T11:08:32;2.90;;;1.90;;
44270;SDS011;29963;44.594;11.368;2023-07-31T11:13:30;2.50;;;1.65;;
44270;SDS011;29963;44.594;11.368;2023-07-31T11:15:56;2.15;;;1.60;;
44270;SDS011;29963;44.594;11.368;2023-07-31T11:18:22;3.15;;;2.08;;
44270;SDS011;29963;44.594;11.368;2023-07-31T11:20:48;4.35;;;2.03;;
44270;SDS011;29963;44.594;11.368;2023-07-31T11:23:15;3.15;;;1.90;;
44270;SDS011;29963;44.594;11.368;2023-07-31T11:25:42;1.70;;;1.42;;
44270;SDS011;29963;44.594;11.368;2023-07-31T11:28:11;3.58;;;2.17;;
44270;SDS011;29963;44.594;11.368;2023-07-31T11:30:39;2.15;;;1.85;;
44270;SDS011;29963;44.594;11.368;2023-07-31T11:33:07;5.05;;;2.17;;
44270;SDS011;29963;44.594;11.368;2023-07-31T11:35:34;3.40;;;2.47;;
44270;SDS011;29963;44.594;11.368;2023-07-31T11:38:01;3.30;;;2.05;;
44270;SDS011;29963;44.594;11.368;2023-07-31T11:40:27;3.60;;;1.60;;
44270;SDS011;29963;44.594;11.368;2023-07-31T11:42:57;3.97;;;2.45;;
44270;SDS011;29963;44.594;11.368;2023-07-31T11:45:26;2.88;;;1.73;;
44270;SDS011;29963;44.594;11.368;2023-07-31T11:47:53;4.13;;;2.08;;
44270;SDS011;29963;44.594;11.368;2023-07-31T11:50:20;4.53;;;2.10;;
44270;SDS011;29963;44.594;11.368;2023-07-31T11:52:46;5.88;;;2.40;;
44270;SDS011;29963;44.594;11.368;2023-07-31T11:55:15;2.30;;;2.08;;
44270;SDS011;29963;44.594;11.368;2023-07-31T11:57:41;3.17;;;1.90;;
44270;SDS011;29963;44.594;11.368;2023-07-31T12:00:10;2.00;;;1.85;;
44270;SDS011;29963;44.594;11.368;2023-07-31T12:02:38;3.85;;;2.15;;
44270;SDS011;29963;44.594;11.368;2023-07-31T12:05:10;5.47;;;1.73;;
44270;SDS011;29963;44.594;11.368;2023-07-31T12:07:44;1.98;;;1.73;;
44270;SDS011;29963;44.594;11.368;2023-07-31T12:10:27;4.35;;;2.20;;
44270;SDS011;29963;44.594;11.368;2023-07-31T12:13:01;4.03;;;1.90;;
44270;SDS011;29963;44.594;11.368;2023-07-31T12:15:32;2.08;;;1.85;;
44270;SDS011;29963;44.594;11.368;2023-07-31T12:17:58;3.83;;;2.17;;
44270;SDS011;29963;44.594;11.368;2023-07-31T12:20:24;4.10;;;2.13;;
44270;SDS011;29963;44.594;11.368;2023-07-31T12:22:49;2.17;;;1.83;;
44270;SDS011;29963;44.594;11.368;2023-07-31T12:25:15;3.80;;;2.20;;
44270;SDS011;29963;44.594;11.368;2023-07-31T12:27:44;2.47;;;2.08;;
44270;SDS011;29963;44.594;11.368;2023-07-31T12:30:26;3.70;;;1.63;;
44270;SDS011;29963;44.594;11.368;2023-07-31T12:32:55;4.82;;;2.00;;
44270;SDS011;29963;44.594;11.368;2023-07-31T12:35:20;2.83;;;2.33;;
44270;SDS011;29963;44.594;11.368;2023-07-31T12:37:46;2.08;;;1.58;;
44270;SDS011;29963;44.594;11.368;2023-07-31T12:40:12;1.75;;;1.65;;
44270;SDS011;29963;44.594;11.368;2023-07-31T12:42:37;2.28;;;1.75;;
44270;SDS011;29963;44.594;11.368;2023-07-31T12:45:03;4.35;;;2.00;;
44270;SDS011;29963;44.594;11.368;2023-07-31T12:47:30;2.40;;;2.17;;
44270;SDS011;29963;44.594;11.368;2023-07-31T12:49:55;2.50;;;1.80;;
44270;SDS011;29963;44.594;11.368;2023-07-31T12:52:21;3.88;;;2.42;;
44270;SDS011;29963;44.594;11.368;2023-07-31T12:54:46;3.65;;;2.13;;
44270;SDS011;29963;44.594;11.368;2023-07-31T12:57:12;2.03;;;1.75;;
44270;SDS011;29963;44.594;11.368;2023-07-31T12:59:38;2.80;;;2.00;;
44270;SDS011;29963;44.594;11.368;2023-07-31T13:02:03;2.03;;;1.80;;
44270;SDS011;29963;44.594;11.368;2023-07-31T13:04:29;2.95;;;2.22;;
44270;SDS011;29963;44.594;11.368;2023-07-31T13:06:55;2.83;;;1.80;;
44270;SDS011;29963;44.594;11.368;2023-07-31T13:09:21;7.18;;;2.10;;
44270;SDS011;29963;44.594;11.368;2023-07-31T13:11:46;1.92;;;1.73;;
44270;SDS011;29963;44.594;11.368;2023-07-31T13:14:12;2.10;;;1.38;;
44270;SDS011;29963;44.594;11.368;2023-07-31T13:16:37;2.35;;;2.15;;
44270;SDS011;29963;44.594;11.368;2023-07-31T13:19:03;2.70;;;2.08;;
44270;SDS011;29963;44.594;11.368;2023-07-31T13:21:29;3.65;;;2.20;;
44270;SDS011;29963;44.594;11.368;2023-07-31T13:23:54;3.08;;;1.73;;
44270;SDS011;29963;44.594;11.368;2023-07-31T13:26:22;2.70;;;1.92;;
44270;SDS011;29963;44.594;11.368;2023-07-31T13:28:48;3.25;;;2.08;;
44270;SDS011;29963;44.594;11.368;2023-07-31T13:31:14;4.47;;;2.08;;
44270;SDS011;29963;44.594;11.368;2023-07-31T13:33:39;4.35;;;2.10;;
44270;SDS011;29963;44.594;11.368;2023-07-31T13:36:05;1.73;;;1.63;;
44270;SDS011;29963;44.594;11.368;2023-07-31T13:38:30;2.65;;;2.25;;
44270;SDS011;29963;44.594;11.368;2023-07-31T13:40:56;2.13;;;1.83;;
44270;SDS011;29963;44.594;11.368;2023-07-31T13:43:22;5.00;;;2.15;;
44270;SDS011;29963;44.594;11.368;2023-07-31T13:45:47;2.72;;;2.05;;
44270;SDS011;29963;44.594;11.368;2023-07-31T13:48:13;3.05;;;1.77;;
44270;SDS011;29963;44.594;11.368;2023-07-31T13:50:38;2.13;;;1.95;;
44270;SDS011;29963;44.594;11.368;2023-07-31T13:53:04;2.88;;;2.00;;
44270;SDS011;29963;44.594;11.368;2023-07-31T13:55:29;3.55;;;1.52;;
44270;SDS011;29963;44.594;11.368;2023-07-31T13:57:55;2.47;;;1.90;;
44270;SDS011;29963;44.594;11.368;2023-07-31T14:00:21;3.45;;;1.80;;
44270;SDS011;29963;44.594;11.368;2023-07-31T14:02:47;5.65;;;2.03;;
44270;SDS011;29963;44.594;11.368;2023-07-31T14:05:12;2.50;;;1.80;;
44270;SDS011;29963;44.594;11.368;2023-07-31T14:07:38;2.60;;;2.22;;
44270;SDS011;29963;44.594;11.368;2023-07-31T14:10:04;2.97;;;2.13;;
44270;SDS011;29963;44.594;11.368;2023-07-31T14:12:30;4.07;;;2.10;;
44270;SDS011;29963;44.594;11.368;2023-07-31T14:14:55;3.97;;;1.70;;
44270;SDS011;29963;44.594;11.368;2023-07-31T14:17:21;3.72;;;1.70;;
44270;SDS011;29963;44.594;11.368;2023-07-31T14:19:47;3.92;;;1.92;;
44270;SDS011;29963;44.594;11.368;2023-07-31T14:22:12;2.67;;;2.03;;
44270;SDS011;29963;44.594;11.368;2023-07-31T14:24:38;2.60;;;2.38;;
44270;SDS011;29963;44.594;11.368;2023-07-31T14:27:03;4.63;;;1.75;;
44270;SDS011;29963;44.594;11.368;2023-07-31T14:29:29;5.07;;;1.85;;
44270;SDS011;29963;44.594;11.368;2023-07-31T14:31:55;1.63;;;1.52;;
44270;SDS011;29963;44.594;11.368;2023-07-31T14:34:21;1.83;;;1.50;;
44270;SDS011;29963;44.594;11.368;2023-07-31T14:36:46;2.00;;;1.85;;